Time;durP1;ratioP1;P1;durP2;ratioP2;P2;SDS_P1;SDS_P2;PMS_P1;PMS_P2;Temp;Humidity;BMP_temperature;BMP_pressure;BME280_temperature;BME280_humidity;BME280_pressure;Samples;Min_cycle;Max_cycle;Signal;HPM_P1;HPM_P2
2022/03/02 00:01:34;;;;;;;30.35;12.20;;;1.90;80.70;;;;;;5055503;28;20051;-91
2022/03/02 00:04:00;;;;;;;37.28;11.90;;;1.80;80.60;;;;;;5055337;28;20017;-90
2022/03/02 00:06:25;;;;;;;30.35;11.73;;;1.80;80.80;;;;;;5059531;28;20021;-89
2022/03/02 00:08:51;;;;;;;30.70;12.80;;;1.80;81.00;;;;;;5058976;28;20043;-89
2022/03/02 00:11:17;;;;;;;30.80;11.55;;;1.70;81.20;;;;;;5038178;28;20029;-89
2022/03/02 00:13:44;;;;;;;29.80;12.85;;;1.70;81.40;;;;;;5050048;28;20095;-90
2022/03/02 00:16:10;;;;;;;33.83;11.70;;;1.70;81.50;;;;;;5057122;28;20045;-88
2022/03/02 00:18:36;;;;;;;28.95;11.75;;;1.60;81.70;;;;;;5042503;28;20033;-88
2022/03/02 00:21:02;;;;;;;35.28;11.63;;;1.60;82.00;;;;;;5059490;28;20029;-88
2022/03/02 00:23:29;;;;;;;37.15;12.80;;;1.60;82.20;;;;;;5059428;28;20048;-89
2022/03/02 00:25:55;;;;;;;28.20;10.93;;;1.60;82.30;;;;;;5041485;28;20033;-88
2022/03/02 00:28:22;;;;;;;30.35;12.52;;;1.60;82.40;;;;;;5058586;28;20019;-90
2022/03/02 00:30:49;;;;;;;31.00;11.68;;;1.50;82.40;;;;;;5059111;28;20021;-89
2022/03/02 00:33:15;;;;;;;34.92;11.82;;;1.50;82.60;;;;;;5051508;28;20033;-90
2022/03/02 00:35:41;;;;;;;31.15;12.00;;;1.50;82.60;;;;;;5054087;28;20013;-89
2022/03/02 00:38:10;;;;;;;31.23;11.50;;;1.50;83.20;;;;;;5057673;28;20044;-89
2022/03/02 00:40:41;;;;;;;34.25;11.65;;;1.50;83.60;;;;;;5058006;28;20021;-87
2022/03/02 00:43:08;;;;;;;28.02;11.45;;;1.40;84.20;;;;;;5041875;28;20018;-88
2022/03/02 00:45:34;;;;;;;27.05;11.50;;;1.40;83.90;;;;;;5058681;28;20029;-90
2022/03/02 00:48:02;;;;;;;30.58;11.88;;;1.40;83.80;;;;;;5057529;28;20024;-90
2022/03/02 00:50:28;;;;;;;31.20;12.10;;;1.40;84.00;;;;;;5057504;28;20144;-87
2022/03/02 00:52:54;;;;;;;28.33;11.70;;;1.30;84.30;;;;;;5056877;28;20037;-91
2022/03/02 00:55:20;;;;;;;34.90;12.35;;;1.30;85.00;;;;;;5037935;28;20033;-89
2022/03/02 00:57:46;;;;;;;25.98;11.07;;;1.30;86.30;;;;;;5054492;28;20048;-90
2022/03/02 01:00:12;;;;;;;28.60;12.32;;;1.30;86.40;;;;;;5054685;28;20017;-90
2022/03/02 01:02:39;;;;;;;28.42;12.43;;;1.30;88.40;;;;;;5039150;28;20131;-91
2022/03/02 01:05:06;;;;;;;33.53;12.48;;;1.30;90.20;;;;;;5056808;28;20006;-90
2022/03/02 01:07:32;;;;;;;39.70;13.02;;;1.20;90.50;;;;;;5057960;28;20029;-88
2022/03/02 01:09:59;;;;;;;34.45;12.93;;;1.10;90.80;;;;;;5057615;28;20045;-89
2022/03/02 01:12:25;;;;;;;34.80;12.57;;;1.20;90.70;;;;;;5057172;28;20038;-90
2022/03/02 01:14:51;;;;;;;28.75;12.20;;;1.10;90.70;;;;;;5034648;28;20484;-90
2022/03/02 01:17:18;;;;;;;32.15;13.05;;;1.10;90.60;;;;;;5050149;28;20053;-91
2022/03/02 01:19:45;;;;;;;32.22;12.80;;;1.10;91.90;;;;;;5055740;28;20041;-89
2022/03/02 01:22:11;;;;;;;30.65;11.48;;;1.00;92.10;;;;;;5057075;28;20022;-89
2022/03/02 01:24:37;;;;;;;30.10;13.30;;;1.00;92.10;;;;;;5040820;28;20041;-87
2022/03/02 01:27:03;;;;;;;32.25;13.05;;;1.00;91.70;;;;;;5057710;28;20037;-89
2022/03/02 01:29:30;;;;;;;29.42;12.35;;;1.00;91.90;;;;;;5057313;28;20009;-89
2022/03/02 01:32:00;;;;;;;37.80;12.68;;;1.00;92.30;;;;;;5057576;28;20021;-87
2022/03/02 01:34:26;;;;;;;38.50;12.93;;;0.90;92.50;;;;;;5041446;28;20017;-90
2022/03/02 01:36:53;;;;;;;35.85;12.80;;;0.90;93.00;;;;;;5056841;28;20037;-89
2022/03/02 01:39:19;;;;;;;31.45;12.60;;;0.90;92.50;;;;;;5060171;28;20063;-89
2022/03/02 01:41:45;;;;;;;30.75;13.07;;;1.00;92.10;;;;;;5061375;28;20035;-88
2022/03/02 01:44:12;;;;;;;36.88;13.93;;;0.90;91.90;;;;;;5056403;28;20037;-87
2022/03/02 01:46:38;;;;;;;28.83;12.38;;;0.90;91.80;;;;;;5058006;28;20017;-91
2022/03/02 01:49:04;;;;;;;34.70;13.23;;;0.90;92.10;;;;;;5053412;28;20034;-88
2022/03/02 01:51:30;;;;;;;28.42;12.68;;;0.90;93.00;;;;;;5046135;28;20073;-89
2022/03/02 01:53:56;;;;;;;31.65;13.73;;;0.80;94.00;;;;;;5044722;28;20060;-90
2022/03/02 01:56:22;;;;;;;30.15;12.70;;;0.80;94.70;;;;;;5044287;28;20025;-90
2022/03/02 01:58:48;;;;;;;45.35;13.77;;;0.80;95.20;;;;;;5050994;28;20029;-90
2022/03/02 02:01:15;;;;;;;35.45;14.57;;;0.80;95.80;;;;;;5044201;28;20048;-89
2022/03/02 02:03:41;;;;;;;32.00;12.65;;;0.80;96.20;;;;;;5052368;28;20045;-90
2022/03/02 02:06:08;;;;;;;32.63;13.43;;;0.70;96.20;;;;;;5059248;28;20037;-89
2022/03/02 02:08:34;;;;;;;32.47;13.52;;;0.70;95.80;;;;;;5060695;28;20021;-89
2022/03/02 02:11:01;;;;;;;27.52;12.43;;;0.70;95.20;;;;;;5061404;28;20014;-88
2022/03/02 02:13:30;;;;;;;33.40;12.23;;;0.80;94.60;;;;;;5061567;28;20017;-88
2022/03/02 02:15:56;;;;;;;31.92;12.73;;;0.80;94.10;;;;;;5044753;28;20252;-89
2022/03/02 02:18:22;;;;;;;30.75;13.43;;;0.70;93.90;;;;;;5059953;28;20017;-89
2022/03/02 02:20:48;;;;;;;33.88;12.95;;;0.70;93.70;;;;;;5051188;28;20034;-90
2022/03/02 02:23:14;;;;;;;29.13;12.15;;;0.70;93.50;;;;;;5050630;28;20029;-91
2022/03/02 02:25:41;;;;;;;29.60;12.73;;;0.70;93.70;;;;;;5061402;28;20029;-88
2022/03/02 02:28:12;;;;;;;32.78;12.45;;;0.70;93.50;;;;;;5060354;28;20056;-90
2022/03/02 02:30:39;;;;;;;37.47;13.30;;;0.70;93.30;;;;;;5053396;28;20033;-90
2022/03/02 02:33:05;;;;;;;31.10;12.70;;;0.70;93.00;;;;;;5055065;28;20044;-89
2022/03/02 02:35:32;;;;;;;28.67;11.82;;;0.70;92.90;;;;;;5039533;28;20037;-89
2022/03/02 02:37:58;;;;;;;30.17;10.77;;;0.70;92.80;;;;;;5055735;28;20052;-90
2022/03/02 02:40:26;;;;;;;27.55;11.80;;;0.60;92.80;;;;;;5056634;28;20088;-90
2022/03/02 02:42:52;;;;;;;27.27;11.15;;;0.70;92.80;;;;;;5056292;28;20041;-90
2022/03/02 02:45:23;;;;;;;31.92;12.38;;;0.70;92.70;;;;;;5032559;28;20029;-90
2022/03/02 02:47:53;;;;;;;30.63;11.93;;;0.70;92.80;;;;;;5050678;28;20042;-90
2022/03/02 02:50:24;;;;;;;28.63;12.25;;;0.70;92.80;;;;;;5045659;28;20048;-91
2022/03/02 02:52:51;;;;;;;29.25;11.70;;;0.70;92.90;;;;;;5053971;28;20040;-89
2022/03/02 02:55:18;;;;;;;27.13;11.95;;;0.70;93.00;;;;;;5053458;28;20025;-89
2022/03/02 02:57:44;;;;;;;32.38;11.40;;;0.70;93.40;;;;;;5055745;28;20028;-87
2022/03/02 03:00:13;;;;;;;33.13;12.70;;;0.70;93.00;;;;;;5060482;28;20029;-90
2022/03/02 03:02:40;;;;;;;43.25;12.65;;;0.70;92.90;;;;;;5054305;28;20026;-89
2022/03/02 03:05:14;;;;;;;28.90;12.75;;;0.70;93.10;;;;;;5058518;28;20017;-90
2022/03/02 03:07:41;;;;;;;32.78;13.02;;;0.60;93.60;;;;;;5059440;28;20045;-88
2022/03/02 03:10:08;;;;;;;29.23;12.05;;;0.70;93.80;;;;;;5042491;28;20041;-87
2022/03/02 03:12:35;;;;;;;35.63;12.60;;;0.60;94.40;;;;;;5058429;28;20029;-89
2022/03/02 03:15:02;;;;;;;29.73;11.75;;;0.60;93.60;;;;;;5058277;28;20021;-90
2022/03/02 03:17:28;;;;;;;35.75;12.27;;;0.60;94.40;;;;;;5058078;28;20021;-90
2022/03/02 03:19:54;;;;;;;30.73;12.05;;;0.60;94.50;;;;;;5041250;28;20076;-89
2022/03/02 03:22:20;;;;;;;33.85;13.18;;;0.60;94.70;;;;;;5059037;28;20021;-89
2022/03/02 03:24:46;;;;;;;32.38;14.18;;;0.60;96.10;;;;;;5059605;28;20018;-88
2022/03/02 03:27:12;;;;;;;33.35;12.93;;;0.60;96.90;;;;;;5041482;28;20045;-89
2022/03/02 03:29:38;;;;;;;31.40;12.82;;;0.60;97.70;;;;;;5040360;28;20014;-90
2022/03/02 03:32:05;;;;;;;36.30;13.55;;;0.50;98.10;;;;;;5056534;28;20064;-90
2022/03/02 03:34:30;;;;;;;29.38;13.68;;;0.50;99.00;;;;;;5056221;28;20025;-89
2022/03/02 03:36:56;;;;;;;37.08;14.25;;;0.50;99.90;;;;;;5057243;28;20021;-91
2022/03/02 03:39:22;;;;;;;32.85;13.20;;;0.50;99.90;;;;;;5058175;28;20033;-90
2022/03/02 03:41:48;;;;;;;32.70;13.73;;;0.50;99.90;;;;;;5058883;28;20056;-89
2022/03/02 03:44:14;;;;;;;30.67;14.07;;;0.40;99.90;;;;;;5060017;28;20032;-89
2022/03/02 03:46:40;;;;;;;31.90;13.88;;;0.30;99.90;;;;;;5058989;28;20049;-89
2022/03/02 03:49:06;;;;;;;37.38;13.35;;;0.30;99.90;;;;;;5060709;23;20105;-86
2022/03/02 03:51:33;;;;;;;37.17;14.40;;;0.30;99.90;;;;;;5030670;28;20061;-87
2022/03/02 03:54:00;;;;;;;35.97;15.57;;;0.20;99.90;;;;;;5012578;28;20017;-84
2022/03/02 03:56:27;;;;;;;37.72;14.40;;;0.20;99.90;;;;;;5009982;28;20045;-88
2022/03/02 03:58:54;;;;;;;31.80;12.63;;;0.10;99.90;;;;;;5004839;28;20388;-88
2022/03/02 04:01:21;;;;;;;29.30;13.00;;;0.10;99.90;;;;;;4989837;28;20018;-88
2022/03/02 04:03:47;;;;;;;31.90;14.23;;;0.10;99.90;;;;;;4992293;28;20042;-86
2022/03/02 04:06:13;;;;;;;35.53;13.60;;;0.00;99.90;;;;;;4993973;28;20035;-87
2022/03/02 04:08:40;;;;;;;36.38;14.90;;;0.00;99.90;;;;;;4995558;28;20045;-85
2022/03/02 04:11:06;;;;;;;36.00;13.93;;;0.00;99.90;;;;;;4998924;28;20022;-86
2022/03/02 04:13:32;;;;;;;40.10;15.02;;;0.00;99.90;;;;;;4998183;28;20057;-87
2022/03/02 04:15:58;;;;;;;40.05;14.75;;;0.00;99.90;;;;;;4991412;28;20042;-88
2022/03/02 04:18:24;;;;;;;31.70;12.20;;;0.00;99.90;;;;;;4992486;28;20031;-87
2022/03/02 04:20:52;;;;;;;36.63;14.35;;;0.00;99.90;;;;;;4986767;28;20090;-89
2022/03/02 04:23:18;;;;;;;34.25;13.88;;;0.00;99.90;;;;;;4983908;28;20475;-86
2022/03/02 04:25:44;;;;;;;35.15;13.88;;;-0.10;99.90;;;;;;4982264;28;20031;-89
2022/03/02 04:28:10;;;;;;;31.35;12.65;;;-0.10;99.90;;;;;;4983802;28;20093;-89
2022/03/02 04:30:37;;;;;;;34.03;13.93;;;-0.10;99.90;;;;;;4985846;28;20038;-86
2022/03/02 04:33:02;;;;;;;35.00;14.13;;;-0.10;99.90;;;;;;5004476;28;20026;-88
2022/03/02 04:35:28;;;;;;;37.10;13.23;;;-0.10;99.90;;;;;;4986509;28;20098;-88
2022/03/02 04:37:54;;;;;;;32.33;13.63;;;-0.10;99.90;;;;;;4986438;28;20018;-88
2022/03/02 04:40:20;;;;;;;31.77;12.85;;;-0.20;99.90;;;;;;4986420;28;20034;-87
2022/03/02 04:42:46;;;;;;;39.28;14.23;;;-0.20;99.90;;;;;;4987140;28;20034;-87
2022/03/02 04:45:12;;;;;;;42.25;14.95;;;-0.10;99.90;;;;;;4987796;28;20127;-86
2022/03/02 04:47:39;;;;;;;33.28;14.48;;;-0.10;99.90;;;;;;4991259;28;20038;-85
2022/03/02 04:50:07;;;;;;;43.65;15.27;;;-0.10;99.90;;;;;;4993906;28;20471;-86
2022/03/02 04:52:33;;;;;;;34.42;14.07;;;-0.20;99.90;;;;;;5013487;28;20030;-84
2022/03/02 04:55:05;;;;;;;35.55;14.35;;;-0.20;99.90;;;;;;5015059;28;20030;-85
2022/03/02 04:57:36;;;;;;;32.80;14.07;;;-0.20;99.90;;;;;;4999456;28;20030;-84
2022/03/02 05:00:06;;;;;;;30.73;14.15;;;-0.20;99.90;;;;;;4999067;28;20034;-85
2022/03/02 05:02:32;;;;;;;37.35;12.93;;;-0.30;99.90;;;;;;4998193;28;20031;-86
2022/03/02 05:04:57;;;;;;;37.30;15.13;;;-0.20;99.90;;;;;;4986211;28;20034;-88
2022/03/02 05:07:23;;;;;;;34.20;13.73;;;-0.30;99.90;;;;;;4991840;28;20066;-84
2022/03/02 05:09:49;;;;;;;35.10;13.77;;;-0.30;99.90;;;;;;5014539;28;20011;-84
2022/03/02 05:12:15;;;;;;;31.75;14.18;;;-0.30;99.90;;;;;;4998493;28;20018;-85
2022/03/02 05:14:40;;;;;;;35.63;13.82;;;-0.30;99.90;;;;;;5009674;28;20481;-87
2022/03/02 05:17:06;;;;;;;33.90;13.23;;;-0.30;99.90;;;;;;4986142;28;20049;-88
2022/03/02 05:19:33;;;;;;;24.25;11.85;;;-0.30;99.90;;;;;;4984224;28;20106;-88
2022/03/02 05:21:59;;;;;;;38.75;13.90;;;-0.30;99.90;;;;;;4983518;28;20025;-87
2022/03/02 05:24:25;;;;;;;30.83;12.48;;;-0.20;99.90;;;;;;4983899;28;20070;-89
2022/03/02 05:26:50;;;;;;;32.90;12.43;;;-0.30;99.90;;;;;;4990990;28;20027;-85
2022/03/02 05:29:16;;;;;;;38.80;13.77;;;-0.30;99.90;;;;;;4990038;28;20042;-89
2022/03/02 05:31:42;;;;;;;32.17;13.48;;;-0.20;99.90;;;;;;4983736;28;20077;-88
2022/03/02 05:34:08;;;;;;;36.95;12.90;;;-0.20;99.90;;;;;;4983729;28;20041;-86
2022/03/02 05:36:34;;;;;;;33.47;12.95;;;-0.10;99.90;;;;;;4983673;28;20113;-89
2022/03/02 05:39:00;;;;;;;42.78;13.82;;;0.00;99.90;;;;;;4987332;28;20050;-86
2022/03/02 05:41:26;;;;;;;29.42;12.50;;;0.00;99.90;;;;;;4994744;28;20017;-87
2022/03/02 05:43:53;;;;;;;37.88;12.02;;;0.00;99.90;;;;;;4994882;28;20507;-86
2022/03/02 05:46:19;;;;;;;35.10;12.73;;;0.10;99.90;;;;;;4993178;28;20033;-88
2022/03/02 05:48:45;;;;;;;37.33;11.15;;;0.10;99.90;;;;;;4992896;28;20038;-88
2022/03/02 05:51:11;;;;;;;50.10;13.35;;;0.10;99.90;;;;;;4988175;28;20031;-88
2022/03/02 05:53:36;;;;;;;30.92;12.50;;;0.10;99.90;;;;;;4997161;28;20067;-85
2022/03/02 05:56:03;;;;;;;33.25;12.63;;;0.20;99.90;;;;;;4998632;28;20058;-84
2022/03/02 05:58:29;;;;;;;29.77;12.07;;;0.30;99.90;;;;;;4998590;28;20015;-83
2022/03/02 06:00:57;;;;;;;27.95;12.48;;;0.30;99.90;;;;;;4998079;28;20080;-84
2022/03/02 06:03:22;;;;;;;33.58;13.10;;;0.40;99.90;;;;;;4979507;28;20027;-85
2022/03/02 06:05:49;;;;;;;32.28;12.68;;;0.40;99.90;;;;;;4995683;28;20011;-84
2022/03/02 06:08:15;;;;;;;36.00;12.13;;;0.40;99.90;;;;;;5008083;28;20042;-86
2022/03/02 06:10:41;;;;;;;31.20;11.73;;;0.40;99.90;;;;;;4989416;28;20438;-86
2022/03/02 06:13:07;;;;;;;34.15;11.60;;;0.50;99.90;;;;;;4984036;28;20087;-87
2022/03/02 06:15:33;;;;;;;29.58;12.05;;;0.60;99.70;;;;;;4997449;28;20066;-86
2022/03/02 06:18:01;;;;;;;33.55;11.30;;;0.60;99.20;;;;;;4993559;28;20033;-87
2022/03/02 06:20:28;;;;;;;47.83;11.82;;;0.70;98.90;;;;;;4996577;28;20045;-87
2022/03/02 06:22:55;;;;;;;39.00;12.00;;;0.70;98.40;;;;;;4991566;28;20090;-87
2022/03/02 06:25:21;;;;;;;40.38;12.25;;;0.80;98.20;;;;;;4995876;28;20022;-89
2022/03/02 06:27:47;;;;;;;44.28;12.73;;;0.80;97.90;;;;;;4998633;28;20027;-86
2022/03/02 06:30:13;;;;;;;31.17;12.25;;;0.90;97.50;;;;;;5001090;28;20042;-85
2022/03/02 06:32:39;;;;;;;27.75;11.75;;;1.00;97.30;;;;;;4998669;28;20026;-88
2022/03/02 06:35:06;;;;;;;33.13;12.15;;;1.00;97.50;;;;;;4996655;28;20027;-88
2022/03/02 06:37:33;;;;;;;34.42;14.15;;;1.10;97.30;;;;;;5009326;28;20039;-87
2022/03/02 06:40:01;;;;;;;34.90;13.25;;;1.20;98.70;;;;;;4997605;28;20010;-86
2022/03/02 06:42:38;;;;;;;33.97;14.15;;;1.20;99.90;;;;;;5014157;28;20038;-88
2022/03/02 06:45:14;;;;;;;34.67;13.25;;;1.20;99.90;;;;;;5015459;28;20050;-85
2022/03/02 06:47:57;;;;;;;38.70;13.57;;;1.20;99.90;;;;;;5000688;28;20078;-85
2022/03/02 06:50:30;;;;;;;31.90;12.80;;;1.20;99.90;;;;;;5000936;28;20258;-85
2022/03/02 06:52:57;;;;;;;37.72;13.75;;;1.20;99.90;;;;;;5001013;28;20035;-84
2022/03/02 06:55:26;;;;;;;34.22;13.63;;;1.40;99.90;;;;;;5001191;28;20070;-85
2022/03/02 06:57:59;;;;;;;35.05;13.20;;;1.50;99.90;;;;;;4998346;28;20102;-88
2022/03/02 07:00:25;;;;;;;37.30;13.90;;;1.60;99.70;;;;;;5008568;28;20045;-87
2022/03/02 07:03:10;;;;;;;30.63;13.00;;;1.80;99.40;;;;;;5000736;28;20050;-88
2022/03/02 07:05:37;;;;;;;37.50;13.35;;;1.90;99.40;;;;;;5000347;28;20079;-85
2022/03/02 07:08:04;;;;;;;34.28;14.00;;;2.00;98.60;;;;;;5000985;28;20023;-85
2022/03/02 07:10:33;;;;;;;31.58;13.40;;;1.90;98.70;;;;;;4999827;28;20030;-84
2022/03/02 07:13:01;;;;;;;39.35;13.90;;;2.00;98.70;;;;;;4999787;28;20026;-85
2022/03/02 07:15:32;;;;;;;36.78;13.88;;;2.00;98.30;;;;;;5001113;28;20030;-86
2022/03/02 07:18:02;;;;;;;33.00;13.50;;;2.10;98.50;;;;;;5000315;28;20026;-85
2022/03/02 07:20:29;;;;;;;33.17;12.75;;;2.00;98.70;;;;;;5016140;28;20082;-85
2022/03/02 07:22:57;;;;;;;34.83;13.68;;;2.10;98.60;;;;;;5000346;28;20007;-86
2022/03/02 07:25:29;;;;;;;38.38;13.30;;;2.10;98.70;;;;;;5000381;28;20057;-86
2022/03/02 07:27:59;;;;;;;33.10;13.02;;;2.10;98.60;;;;;;5000664;28;20042;-84
2022/03/02 07:30:26;;;;;;;36.20;13.27;;;2.20;98.40;;;;;;5000524;28;20057;-84
2022/03/02 07:32:59;;;;;;;36.47;13.55;;;2.20;98.00;;;;;;5000834;28;20015;-84
2022/03/02 07:35:26;;;;;;;32.85;12.98;;;2.20;98.10;;;;;;5000444;28;20015;-85
2022/03/02 07:37:55;;;;;;;29.00;12.55;;;2.20;97.60;;;;;;5000487;28;20030;-85
2022/03/02 07:40:21;;;;;;;29.38;11.93;;;2.30;97.40;;;;;;5000343;28;20089;-85
2022/03/02 07:42:46;;;;;;;32.65;12.40;;;2.40;96.80;;;;;;5014748;28;20398;-86
2022/03/02 07:45:13;;;;;;;30.85;12.65;;;2.50;96.40;;;;;;4999257;28;20030;-84
2022/03/02 07:47:38;;;;;;;32.83;12.65;;;2.60;96.20;;;;;;4997386;28;20043;-86
2022/03/02 07:50:05;;;;;;;33.55;13.90;;;2.60;96.20;;;;;;4999342;28;20317;-87
2022/03/02 07:52:33;;;;;;;34.45;13.50;;;2.60;96.50;;;;;;5013342;28;20025;-86
2022/03/02 07:55:06;;;;;;;37.10;12.32;;;2.60;96.00;;;;;;4998491;28;20019;-85
2022/03/02 07:57:32;;;;;;;33.55;11.93;;;2.70;96.00;;;;;;4997903;28;20035;-84
2022/03/02 07:59:59;;;;;;;31.98;12.27;;;2.80;95.20;;;;;;4999561;28;20076;-86
2022/03/02 08:02:25;;;;;;;34.55;11.68;;;2.80;95.10;;;;;;4999046;28;20023;-85
2022/03/02 08:04:53;;;;;;;26.05;11.85;;;2.90;94.60;;;;;;4998606;28;20019;-88
2022/03/02 08:07:19;;;;;;;31.35;11.38;;;3.00;94.40;;;;;;4993626;28;20045;-87
2022/03/02 08:09:45;;;;;;;26.55;11.35;;;3.10;93.70;;;;;;4979351;28;20034;-87
2022/03/02 08:12:11;;;;;;;29.75;11.07;;;3.20;93.20;;;;;;5015369;28;20041;-85
2022/03/02 08:14:38;;;;;;;29.42;11.35;;;3.30;92.90;;;;;;4999861;28;20019;-84
2022/03/02 08:17:04;;;;;;;28.38;11.05;;;3.40;92.50;;;;;;5013514;28;20110;-87
2022/03/02 08:19:30;;;;;;;25.38;11.15;;;3.40;92.00;;;;;;4995648;28;20046;-87
2022/03/02 08:22:05;;;;;;;26.83;10.98;;;3.40;92.00;;;;;;4995193;28;20062;-86
2022/03/02 08:24:34;;;;;;;29.10;10.98;;;3.50;92.40;;;;;;5237554;22;20041;-88
2022/03/02 08:27:02;;;;;;;28.73;11.43;;;3.60;92.50;;;;;;5057223;28;20053;-87
2022/03/02 08:29:31;;;;;;;26.77;10.35;;;3.60;92.50;;;;;;5037391;28;20086;-84
2022/03/02 08:32:02;;;;;;;27.27;11.68;;;3.70;92.30;;;;;;5038373;28;20085;-85
2022/03/02 08:34:30;;;;;;;23.98;11.13;;;3.80;91.70;;;;;;5037816;28;20098;-85
2022/03/02 08:36:56;;;;;;;30.95;11.65;;;3.80;91.80;;;;;;5034019;28;20049;-87
2022/03/02 08:39:23;;;;;;;26.83;12.18;;;3.90;92.00;;;;;;5032778;28;20093;-87
2022/03/02 08:41:50;;;;;;;34.28;11.07;;;3.90;92.10;;;;;;5048214;28;20026;-86
2022/03/02 08:44:16;;;;;;;28.65;12.07;;;3.90;92.10;;;;;;5038225;28;20112;-86
2022/03/02 08:46:46;;;;;;;29.60;11.23;;;3.90;92.00;;;;;;5038046;28;20102;-86
2022/03/02 08:49:14;;;;;;;29.60;12.93;;;3.90;91.50;;;;;;5037971;28;20082;-85
2022/03/02 08:51:41;;;;;;;35.75;13.32;;;3.90;92.20;;;;;;5038084;28;20089;-85
2022/03/02 08:54:08;;;;;;;27.60;12.10;;;3.90;92.40;;;;;;5037420;28;20022;-87
2022/03/02 08:56:37;;;;;;;26.35;12.18;;;4.10;92.00;;;;;;5037637;28;20061;-87
2022/03/02 08:59:04;;;;;;;25.95;10.95;;;4.30;91.40;;;;;;5037961;28;20045;-87
2022/03/02 09:01:31;;;;;;;29.25;11.35;;;4.60;90.70;;;;;;5036959;28;20068;-84
2022/03/02 09:04:02;;;;;;;25.23;11.77;;;5.00;90.30;;;;;;5037797;28;20030;-86
2022/03/02 09:06:28;;;;;;;25.90;11.55;;;5.70;88.20;;;;;;5037215;28;20045;-88
2022/03/02 09:08:57;;;;;;;28.15;11.10;;;6.30;85.60;;;;;;5036624;28;20034;-87
2022/03/02 09:11:24;;;;;;;26.20;10.85;;;7.30;83.40;;;;;;5053444;28;20045;-87
2022/03/02 09:13:50;;;;;;;21.80;10.00;;;7.80;79.60;;;;;;5053195;28;20014;-87
2022/03/02 09:16:17;;;;;;;30.27;11.63;;;8.80;77.00;;;;;;5037598;28;20072;-87
2022/03/02 09:18:44;;;;;;;26.08;11.15;;;9.70;73.70;;;;;;5053420;28;20056;-87
2022/03/02 09:21:13;;;;;;;26.40;10.63;;;10.90;70.40;;;;;;5054301;28;20018;-86
2022/03/02 09:23:40;;;;;;;25.83;10.88;;;11.90;66.80;;;;;;5038038;28;20170;-86
2022/03/02 09:26:12;;;;;;;25.00;10.73;;;12.60;63.00;;;;;;5037528;28;20033;-86
2022/03/02 09:28:41;;;;;;;19.70;11.40;;;13.60;59.90;;;;;;5037708;28;20018;-87
2022/03/02 09:31:09;;;;;;;21.23;10.40;;;14.50;56.70;;;;;;5037878;28;20044;-87
2022/03/02 09:33:37;;;;;;;22.02;11.13;;;15.10;55.10;;;;;;5037896;28;20049;-86
2022/03/02 09:36:06;;;;;;;23.30;10.80;;;15.90;53.60;;;;;;5053893;28;20060;-85
2022/03/02 09:38:34;;;;;;;23.63;11.88;;;16.30;52.30;;;;;;5052688;28;20442;-87
2022/03/02 09:41:05;;;;;;;21.90;11.48;;;16.10;51.50;;;;;;5033706;28;20048;-88
2022/03/02 09:43:36;;;;;;;21.42;10.85;;;16.60;51.40;;;;;;5032807;28;20045;-87
2022/03/02 09:46:07;;;;;;;25.70;11.05;;;17.40;49.50;;;;;;5032895;28;20061;-88
2022/03/02 09:48:47;;;;;;;22.95;10.80;;;18.00;47.70;;;;;;5105498;23;20109;-90
2022/03/02 09:51:21;;;;;;;21.25;11.13;;;18.50;45.70;;;;;;5054452;28;20024;-89
2022/03/02 09:53:49;;;;;;;20.08;11.27;;;18.40;46.10;;;;;;5057359;28;20017;-90
2022/03/02 09:56:19;;;;;;;21.60;11.10;;;18.90;45.40;;;;;;5055230;28;20036;-91
2022/03/02 09:58:49;;;;;;;18.60;10.80;;;19.50;44.50;;;;;;5039972;28;20100;-91
2022/03/02 10:01:15;;;;;;;18.65;9.10;;;19.60;43.50;;;;;;5060413;28;20078;-91
2022/03/02 10:03:46;;;;;;;22.58;9.32;;;19.30;42.90;;;;;;5060513;28;20029;-90
2022/03/02 10:06:13;;;;;;;22.02;10.20;;;19.20;43.20;;;;;;5061140;28;20443;-90
2022/03/02 10:08:48;;;;;;;19.50;9.93;;;19.60;43.20;;;;;;5061035;28;20013;-90
2022/03/02 10:11:20;;;;;;;18.52;9.52;;;19.80;42.30;;;;;;5060605;28;20040;-90
2022/03/02 10:13:46;;;;;;;21.83;9.13;;;19.80;41.90;;;;;;5061213;28;20018;-90
2022/03/02 10:16:24;;;;;;;19.80;9.95;;;20.00;41.80;;;;;;5044092;28;20060;-89
2022/03/02 10:19:00;;;;;;;21.05;10.88;;;19.70;41.80;;;;;;5061216;28;20093;-90
2022/03/02 10:21:31;;;;;;;19.38;10.07;;;19.60;42.10;;;;;;5060908;28;20088;-90
2022/03/02 10:24:00;;;;;;;18.90;10.30;;;19.80;41.90;;;;;;5060536;28;20029;-90
2022/03/02 10:26:31;;;;;;;18.58;11.38;;;19.50;42.10;;;;;;5059835;28;20065;-92
2022/03/02 10:29:06;;;;;;;20.13;10.38;;;19.40;42.30;;;;;;5060626;28;20065;-89
2022/03/02 10:31:44;;;;;;;19.85;10.85;;;19.60;42.60;;;;;;5060799;28;20021;-90
2022/03/02 10:34:30;;;;;;;20.20;10.32;;;20.30;42.00;;;;;;5060788;28;20056;-89
2022/03/02 10:37:13;;;;;;;21.58;11.20;;;20.80;41.50;;;;;;5060045;28;20037;-92
2022/03/02 10:40:09;;;;;;;20.05;11.23;;;21.10;41.10;;;;;;5058900;28;20029;-90
2022/03/02 10:42:41;;;;;;;21.80;11.20;;;21.00;41.40;;;;;;5060154;28;20018;-90
2022/03/02 10:45:14;;;;;;;20.63;10.35;;;20.80;40.80;;;;;;5060197;28;20010;-90
2022/03/02 10:48:02;;;;;;;20.15;11.65;;;20.70;41.10;;;;;;5043929;28;20035;-90
2022/03/02 10:50:32;;;;;;;19.48;11.20;;;20.60;41.10;;;;;;5044003;28;20025;-92
2022/03/02 10:52:59;;;;;;;19.95;11.10;;;21.20;40.70;;;;;;5060636;28;20029;-89
2022/03/02 10:55:26;;;;;;;22.27;11.02;;;21.50;40.60;;;;;;5043757;28;20026;-90
2022/03/02 10:57:57;;;;;;;22.20;11.35;;;21.20;40.50;;;;;;5060545;28;20018;-92
2022/03/02 11:00:24;;;;;;;17.33;10.48;;;21.50;40.30;;;;;;5042818;28;20030;-90
2022/03/02 11:02:56;;;;;;;17.80;10.43;;;21.60;40.00;;;;;;5059430;28;20013;-91
2022/03/02 11:05:24;;;;;;;21.33;10.85;;;20.90;40.50;;;;;;5059601;28;20105;-91
2022/03/02 11:07:50;;;;;;;18.10;10.45;;;20.90;40.00;;;;;;5059915;28;20034;-92
2022/03/02 11:10:23;;;;;;;21.40;11.52;;;21.50;40.00;;;;;;5059034;28;20069;-92
2022/03/02 11:12:50;;;;;;;16.15;10.63;;;21.70;40.10;;;;;;5042789;28;20017;-92
2022/03/02 11:15:18;;;;;;;18.08;10.60;;;22.20;39.20;;;;;;5059164;28;20021;-90
2022/03/02 11:17:55;;;;;;;17.70;10.23;;;22.40;39.20;;;;;;5042354;28;20014;-90
2022/03/02 11:20:22;;;;;;;21.83;10.70;;;22.20;39.10;;;;;;5059031;28;20083;-90
2022/03/02 11:23:00;;;;;;;18.77;10.93;;;22.10;39.10;;;;;;5059141;28;20014;-90
2022/03/02 11:25:47;;;;;;;18.98;10.60;;;22.50;38.70;;;;;;5059642;28;20013;-89
2022/03/02 11:28:22;;;;;;;15.80;9.73;;;23.40;37.70;;;;;;5058850;28;20026;-90
2022/03/02 11:30:55;;;;;;;18.15;9.85;;;24.00;37.30;;;;;;5060216;28;20024;-90
2022/03/02 11:33:23;;;;;;;22.40;9.90;;;24.00;37.20;;;;;;5059849;28;20020;-92
2022/03/02 11:35:51;;;;;;;16.88;9.35;;;22.70;37.20;;;;;;5058832;28;20081;-91
2022/03/02 11:38:22;;;;;;;19.42;10.30;;;21.70;38.20;;;;;;5058605;28;20017;-88
2022/03/02 11:40:50;;;;;;;15.45;9.63;;;22.00;38.10;;;;;;5058895;28;20017;-91
2022/03/02 11:43:25;;;;;;;16.00;9.40;;;22.40;37.70;;;;;;5058741;28;20036;-91
2022/03/02 11:45:56;;;;;;;15.15;9.32;;;22.40;37.50;;;;;;5059216;28;20017;-91
2022/03/02 11:48:28;;;;;;;17.17;8.60;;;22.60;36.70;;;;;;5059169;28;20040;-91
2022/03/02 11:51:03;;;;;;;14.30;8.40;;;21.90;36.40;;;;;;5058598;28;20056;-91
2022/03/02 11:53:30;;;;;;;;;;;21.50;36.70;;;;;;5059388;28;20018;-89
2022/03/02 11:55:56;;;;;;;15.90;8.75;;;22.00;36.60;;;;;;5058704;28;19957;-90
2022/03/02 11:58:22;;;;;;;16.35;9.65;;;22.80;36.10;;;;;;5058576;28;20045;-90
2022/03/02 12:00:49;;;;;;;12.95;8.82;;;23.00;35.90;;;;;;5058259;28;20076;-91
2022/03/02 12:03:15;;;;;;;16.25;9.50;;;23.10;35.30;;;;;;5056759;28;20032;-91
2022/03/02 12:05:41;;;;;;;15.32;9.05;;;23.10;35.70;;;;;;5039710;28;20045;-91
2022/03/02 12:08:10;;;;;;;14.63;8.30;;;23.30;35.80;;;;;;5057777;28;20052;-91
2022/03/02 12:10:42;;;;;;;14.98;8.85;;;23.50;35.00;;;;;;5042104;28;20040;-91
2022/03/02 12:13:15;;;;;;;14.85;8.35;;;23.50;34.90;;;;;;5058262;28;20010;-90
2022/03/02 12:15:47;;;;;;;14.65;8.30;;;24.00;34.00;;;;;;5058634;28;20041;-90
2022/03/02 12:18:15;;;;;;;16.23;8.00;;;23.90;34.00;;;;;;5058268;28;20021;-90
2022/03/02 12:20:52;;;;;;;13.45;7.38;;;23.30;33.80;;;;;;5058307;28;20041;-89
2022/03/02 12:23:30;;;;;;;12.73;7.72;;;23.30;33.40;;;;;;5057267;28;20033;-90
2022/03/02 12:25:59;;;;;;;15.07;7.13;;;23.50;33.10;;;;;;5059073;28;20033;-90
2022/03/02 12:28:25;;;;;;;14.13;8.63;;;23.60;33.50;;;;;;5058309;28;20049;-91
2022/03/02 12:30:52;;;;;;;12.13;7.65;;;23.40;33.60;;;;;;5058551;28;20040;-90
2022/03/02 12:33:25;;;;;;;12.43;7.78;;;23.40;33.20;;;;;;5058244;28;20045;-90
2022/03/02 12:35:51;;;;;;;13.15;7.28;;;23.30;33.20;;;;;;5041354;28;20024;-90
2022/03/02 12:38:18;;;;;;;15.15;7.20;;;23.60;32.90;;;;;;5058319;28;20077;-91
2022/03/02 12:40:45;;;;;;;10.32;7.20;;;23.40;33.00;;;;;;5041040;28;20040;-89